createdAt,value
2019-05-07T00:01:20.384Z,21.25
2019-05-07T00:03:53.876Z,21.32
2019-05-07T00:06:27.210Z,21.27
2019-05-07T00:09:03.071Z,21.27
2019-05-07T00:11:37.271Z,21.26
2019-05-07T00:14:12.607Z,21.29
2019-05-07T00:16:45.652Z,21.27
2019-05-07T00:19:18.972Z,21.37
2019-05-07T00:21:52.930Z,21.31
2019-05-07T00:24:26.611Z,21.47
2019-05-07T00:27:02.602Z,21.32
2019-05-07T00:29:35.093Z,21.32
2019-05-07T00:32:11.973Z,21.26
2019-05-07T00:34:45.891Z,21.49
2019-05-07T00:37:19.314Z,21.34
2019-05-07T00:39:52.925Z,21.46
2019-05-07T00:42:26.365Z,21.32
2019-05-07T00:45:14.064Z,21.26
2019-05-07T00:47:37.010Z,21.24
2019-05-07T00:50:12.950Z,21.20
2019-05-07T00:52:46.542Z,21.15
2019-05-07T00:55:19.847Z,21.13
2019-05-07T00:57:53.188Z,21.09
2019-05-07T01:00:26.567Z,21.08
2019-05-07T01:02:59.921Z,21.03
2019-05-07T01:05:33.418Z,21.01
2019-05-07T01:08:06.869Z,20.99
2019-05-07T01:10:41.952Z,20.98
2019-05-07T01:13:15.554Z,20.96
2019-05-07T01:15:48.994Z,20.91
2019-05-07T01:18:23.445Z,20.91
2019-05-07T01:20:57.021Z,20.91
2019-05-07T01:23:32.260Z,20.91
2019-05-07T01:26:06.048Z,20.87
2019-05-07T01:28:39.400Z,20.80
2019-05-07T01:31:12.834Z,20.83
2019-05-07T01:33:47.766Z,20.83
2019-05-07T01:36:22.743Z,20.82
2019-05-07T01:38:56.518Z,20.82
2019-05-07T01:41:29.822Z,20.80
2019-05-07T01:44:03.279Z,20.75
2019-05-07T01:46:36.748Z,20.73
2019-05-07T01:49:12.037Z,20.76
2019-05-07T01:51:45.127Z,20.71
2019-05-07T01:54:18.491Z,20.79
2019-05-07T01:56:52.259Z,20.74
2019-05-07T01:59:25.782Z,20.71
2019-05-07T02:01:59.152Z,20.73
2019-05-07T02:04:32.785Z,20.69
2019-05-07T02:07:06.228Z,20.67
2019-05-07T02:09:39.576Z,20.67
2019-05-07T02:12:13.254Z,20.63
2019-05-07T02:14:46.833Z,20.65
2019-05-07T02:17:20.156Z,20.62
2019-05-07T02:19:53.491Z,20.63
2019-05-07T02:22:27.989Z,20.65
2019-05-07T02:25:03.329Z,20.63
2019-05-07T02:27:38.269Z,20.71
2019-05-07T02:30:14.812Z,20.65
2019-05-07T02:32:48.367Z,20.76
2019-05-07T02:35:23.465Z,20.64
2019-05-07T02:37:57.999Z,20.56
2019-05-07T02:40:33.921Z,20.57
2019-05-07T02:43:06.535Z,20.71
2019-05-07T02:45:40.257Z,20.58
2019-05-07T02:48:13.751Z,20.51
2019-05-07T02:50:47.103Z,20.48
2019-05-07T02:53:22.815Z,20.54
2019-05-07T02:55:55.768Z,20.50
2019-05-07T02:58:29.257Z,20.49
2019-05-07T03:01:04.725Z,20.46
2019-05-07T03:03:37.728Z,20.41
2019-05-07T03:06:13.567Z,20.42
2019-05-07T03:08:46.492Z,20.39
2019-05-07T03:11:22.779Z,20.49
2019-05-07T03:13:54.945Z,20.39
2019-05-07T03:16:39.610Z,20.34
2019-05-07T03:19:04.549Z,20.38
2019-05-07T03:21:37.909Z,20.59
2019-05-07T03:24:13.857Z,20.46
2019-05-07T03:26:46.313Z,20.47
2019-05-07T03:29:19.685Z,20.40
2019-05-07T03:31:56.165Z,20.30
2019-05-07T03:34:28.271Z,20.42
2019-05-07T03:37:06.215Z,20.58
2019-05-07T03:39:36.855Z,20.67
2019-05-07T03:42:13.036Z,20.76
2019-05-07T03:44:45.584Z,20.90
2019-05-07T03:47:19.190Z,21.03
2019-05-07T03:49:53.507Z,21.15
2019-05-07T03:52:27.334Z,21.25
2019-05-07T03:55:03.676Z,21.39
2019-05-07T03:57:37.740Z,21.55
2019-05-07T04:00:12.909Z,22.04
2019-05-07T04:02:46.736Z,22.00
2019-05-07T04:05:22.946Z,22.11
2019-05-07T04:07:55.271Z,22.29
2019-05-07T04:10:28.656Z,22.46
2019-05-07T04:13:04.465Z,22.60
2019-05-07T04:15:37.027Z,22.79
2019-05-07T04:18:13.047Z,22.97
2019-05-07T04:20:45.544Z,23.15
2019-05-07T04:23:19.153Z,23.57
2019-05-07T04:25:53.455Z,23.60
2019-05-07T04:28:28.064Z,23.71
2019-05-07T04:31:02.914Z,23.85
2019-05-07T04:33:37.575Z,24.25
2019-05-07T04:36:14.211Z,24.21
2019-05-07T04:38:47.011Z,24.24
2019-05-07T04:41:23.024Z,24.27
2019-05-07T04:43:55.606Z,24.32
2019-05-07T04:46:33.242Z,24.36
2019-05-07T04:49:05.642Z,24.35
2019-05-07T04:51:39.097Z,24.32
2019-05-07T04:54:14.263Z,24.32
2019-05-07T04:56:47.675Z,24.52
2019-05-07T04:59:23.791Z,24.45
2019-05-07T05:01:56.883Z,24.68
2019-05-07T05:04:34.674Z,24.49
2019-05-07T05:07:06.373Z,24.46
2019-05-07T05:09:42.484Z,24.46
2019-05-07T05:12:14.822Z,24.42
2019-05-07T05:14:48.178Z,24.42
2019-05-07T05:17:22.453Z,24.38
2019-05-07T05:19:55.868Z,24.45
2019-05-07T05:22:31.740Z,24.38
2019-05-07T05:25:05.441Z,24.48
2019-05-07T05:27:38.819Z,24.40
2019-05-07T05:30:12.533Z,24.55
2019-05-07T05:32:45.847Z,24.41
2019-05-07T05:35:22.059Z,24.52
2019-05-07T05:37:55.074Z,24.38
2019-05-07T05:40:28.408Z,24.28
2019-05-07T05:43:01.989Z,24.23
2019-05-07T05:45:36.907Z,24.46
2019-05-07T05:48:13.340Z,24.26
2019-05-07T05:50:45.579Z,24.18
2019-05-07T05:53:19.141Z,24.07
2019-05-07T05:55:52.888Z,24.05
2019-05-07T05:58:27.357Z,23.98
2019-05-07T06:01:02.548Z,23.98
2019-05-07T06:03:36.818Z,23.93
2019-05-07T06:06:12.667Z,23.86
2019-05-07T06:08:45.357Z,23.87
2019-05-07T06:11:18.680Z,23.87
2019-05-07T06:13:52.701Z,23.85
2019-05-07T06:16:26.184Z,23.85
2019-05-07T06:19:01.936Z,23.84
2019-05-07T06:21:34.970Z,23.80
2019-05-07T06:24:08.361Z,23.64
2019-05-07T06:26:42.583Z,23.65
2019-05-07T06:29:16.112Z,23.57
2019-05-07T06:31:49.789Z,23.47
2019-05-07T06:34:23.315Z,23.40
2019-05-07T06:36:56.703Z,23.36
2019-05-07T06:39:30.126Z,23.53
2019-05-07T06:42:03.764Z,23.25
2019-05-07T06:44:37.249Z,23.71
2019-05-07T06:47:12.966Z,23.64
2019-05-07T06:49:45.974Z,23.36
2019-05-07T06:52:19.308Z,23.31
2019-05-07T06:54:52.737Z,23.25
2019-05-07T06:57:26.172Z,23.16
2019-05-07T06:59:59.533Z,23.10
2019-05-07T07:02:32.926Z,23.12
2019-05-07T07:05:06.322Z,23.28
2019-05-07T07:07:41.964Z,23.52
2019-05-07T07:10:14.780Z,23.22
2019-05-07T07:12:48.150Z,23.28
2019-05-07T07:15:23.211Z,23.27
2019-05-07T07:17:56.833Z,23.30
2019-05-07T07:20:32.453Z,23.36
2019-05-07T07:23:05.546Z,23.35
2019-05-07T07:25:39.219Z,23.37
2019-05-07T07:28:12.643Z,23.21
2019-05-07T07:30:45.991Z,23.33
2019-05-07T07:33:19.368Z,23.27
2019-05-07T07:35:53.012Z,23.23
2019-05-07T07:38:26.376Z,23.35
2019-05-07T07:41:02.319Z,23.21
2019-05-07T07:43:35.525Z,22.83
2019-05-07T07:46:08.910Z,23.19
2019-05-07T07:48:43.506Z,23.05
2019-05-07T07:51:17.175Z,23.20
2019-05-07T07:53:52.049Z,23.21
2019-05-07T07:56:25.483Z,23.45
2019-05-07T07:58:58.918Z,23.25
2019-05-07T08:01:33.025Z,23.41
2019-05-07T08:04:06.521Z,23.12
2019-05-07T08:06:42.011Z,23.12
2019-05-07T08:09:15.063Z,23.13
2019-05-07T08:11:48.367Z,23.10
2019-05-07T08:14:22.005Z,23.06
2019-05-07T08:16:55.625Z,23.07
2019-05-07T08:19:29.027Z,23.07
2019-05-07T08:22:02.986Z,23.34
2019-05-07T08:24:36.852Z,23.12
2019-05-07T08:27:14.679Z,23.15
2019-05-07T08:29:45.616Z,23.16
2019-05-07T08:32:19.141Z,23.10
2019-05-07T08:34:52.474Z,23.17
2019-05-07T08:37:25.827Z,23.03
2019-05-07T08:39:59.377Z,23.19
2019-05-07T08:42:33.118Z,23.14
2019-05-07T08:45:06.653Z,23.21
2019-05-07T08:47:40.101Z,23.10
2019-05-07T08:50:15.983Z,23.09
2019-05-07T08:52:52.199Z,23.03
2019-05-07T08:55:25.716Z,23.09
2019-05-07T08:57:59.079Z,23.06
2019-05-07T09:00:33.754Z,23.05
2019-05-07T09:03:19.278Z,22.94
2019-05-07T09:05:42.643Z,23.29
2019-05-07T09:08:15.999Z,23.09
2019-05-07T09:10:50.011Z,23.35
2019-05-07T09:13:23.337Z,23.14
2019-05-07T09:15:58.160Z,23.20
2019-05-07T09:18:32.213Z,23.17
2019-05-07T09:21:05.857Z,23.35
2019-05-07T09:23:39.173Z,23.57
2019-05-07T09:26:13.073Z,23.52
2019-05-07T09:28:46.627Z,23.57
2019-05-07T09:31:20.240Z,23.68
2019-05-07T09:33:53.638Z,23.82
2019-05-07T09:36:27.021Z,23.98
2019-05-07T09:39:02.678Z,24.17
2019-05-07T09:41:37.281Z,24.31
2019-05-07T09:44:11.921Z,24.77
2019-05-07T09:46:46.743Z,24.77
2019-05-07T09:49:22.136Z,24.69
2019-05-07T09:51:55.167Z,25.06
2019-05-07T09:54:29.374Z,25.20
2019-05-07T09:57:02.721Z,25.36
2019-05-07T09:59:36.074Z,25.48
2019-05-07T10:02:09.392Z,25.62
2019-05-07T10:04:42.878Z,25.75
2019-05-07T10:07:16.181Z,25.85
2019-05-07T10:09:49.527Z,25.95
2019-05-07T10:12:22.946Z,26.02
2019-05-07T10:14:56.578Z,26.06
2019-05-07T10:17:29.888Z,26.13
2019-05-07T10:20:18.236Z,26.54
2019-05-07T10:22:42.711Z,26.46
2019-05-07T10:25:15.973Z,26.36
2019-05-07T10:27:50.298Z,26.30
2019-05-07T10:30:23.633Z,26.26
2019-05-07T10:32:56.943Z,26.24
2019-05-07T10:35:33.157Z,26.21
2019-05-07T10:38:05.319Z,26.19
2019-05-07T10:40:40.350Z,26.17
2019-05-07T10:43:13.894Z,26.31
2019-05-07T10:45:47.235Z,26.19
2019-05-07T10:48:22.059Z,26.16
2019-05-07T10:50:55.642Z,26.09
2019-05-07T10:53:29.002Z,25.98
2019-05-07T10:56:03.894Z,25.86
2019-05-07T10:58:37.247Z,25.69
2019-05-07T11:01:12.081Z,25.66
2019-05-07T11:03:47.017Z,25.60
2019-05-07T11:06:22.158Z,25.56
2019-05-07T11:08:55.531Z,25.63
2019-05-07T11:11:28.876Z,25.48
2019-05-07T11:14:02.198Z,25.48
2019-05-07T11:16:35.514Z,25.41
2019-05-07T11:19:08.835Z,25.37
2019-05-07T11:21:42.180Z,25.37
2019-05-07T11:24:15.495Z,25.56
2019-05-07T11:26:48.922Z,25.37
2019-05-07T11:29:22.271Z,25.46
2019-05-07T11:31:55.920Z,25.16
2019-05-07T11:34:29.238Z,25.44
2019-05-07T11:37:02.680Z,25.12
2019-05-07T11:39:36.062Z,25.04
2019-05-07T11:42:09.607Z,25.04
2019-05-07T11:44:42.921Z,25.25
2019-05-07T11:47:16.396Z,25.11
2019-05-07T11:49:49.715Z,25.15
2019-05-07T11:52:24.622Z,24.99
2019-05-07T11:54:57.958Z,24.99
2019-05-07T11:57:31.469Z,24.98
2019-05-07T12:00:07.581Z,25.26
2019-05-07T12:02:47.294Z,25.11
2019-05-07T12:05:17.558Z,24.89
2019-05-07T12:07:51.052Z,24.89
2019-05-07T12:10:24.532Z,24.87
2019-05-07T12:12:57.887Z,24.89
2019-05-07T12:15:32.508Z,25.16
2019-05-07T12:18:06.279Z,25.04
2019-05-07T12:20:41.215Z,25.00
2019-05-07T12:23:14.606Z,25.04
2019-05-07T12:25:47.947Z,24.99
2019-05-07T12:28:22.572Z,24.94
2019-05-07T12:30:56.710Z,25.26
2019-05-07T12:33:32.520Z,25.01
2019-05-07T12:36:05.967Z,25.38
2019-05-07T12:38:41.660Z,25.16
2019-05-07T12:41:14.720Z,25.09
2019-05-07T12:43:48.142Z,24.94
2019-05-07T12:46:22.352Z,25.08
2019-05-07T12:48:56.126Z,25.07
2019-05-07T12:51:34.593Z,25.01
2019-05-07T12:54:04.622Z,25.05
2019-05-07T12:56:37.964Z,25.08
2019-05-07T12:59:12.879Z,25.06
2019-05-07T13:01:46.681Z,24.87
2019-05-07T13:04:21.997Z,24.88
2019-05-07T13:06:55.106Z,24.94
2019-05-07T13:09:28.539Z,24.88
2019-05-07T13:12:03.019Z,24.96
2019-05-07T13:14:36.481Z,24.78
2019-05-07T13:17:11.963Z,24.91
2019-05-07T13:19:44.821Z,24.91
2019-05-07T13:22:18.155Z,24.90
2019-05-07T13:24:52.924Z,24.94
2019-05-07T13:27:27.364Z,24.83
2019-05-07T13:30:02.605Z,24.84
2019-05-07T13:32:36.360Z,24.84
2019-05-07T13:35:11.778Z,24.83
2019-05-07T13:37:45.110Z,24.84
2019-05-07T13:40:18.487Z,24.82
2019-05-07T13:42:52.267Z,24.63
2019-05-07T13:45:25.932Z,24.71
2019-05-07T13:47:59.338Z,24.59
2019-05-07T13:50:32.701Z,24.54
2019-05-07T13:53:05.988Z,24.66
2019-05-07T13:55:39.514Z,24.53
2019-05-07T13:58:14.345Z,24.58
2019-05-07T14:00:48.918Z,24.68
2019-05-07T14:03:22.737Z,25.03
2019-05-07T14:05:57.220Z,24.80
2019-05-07T14:08:32.158Z,24.74
2019-05-07T14:11:05.537Z,24.71
2019-05-07T14:13:38.856Z,24.65
2019-05-07T14:16:12.231Z,24.80
2019-05-07T14:18:45.607Z,24.73
2019-05-07T14:21:18.950Z,24.73
2019-05-07T14:23:52.303Z,24.92
2019-05-07T14:26:25.670Z,24.86
2019-05-07T14:29:01.925Z,24.79
2019-05-07T14:31:35.370Z,24.76
2019-05-07T14:34:08.701Z,24.72
2019-05-07T14:36:42.695Z,24.68
2019-05-07T14:39:16.184Z,24.62
2019-05-07T14:41:49.490Z,24.67
2019-05-07T14:44:25.270Z,24.87
2019-05-07T14:47:02.312Z,24.78
2019-05-07T14:49:35.545Z,24.77
2019-05-07T14:52:12.501Z,24.70
2019-05-07T14:54:46.100Z,24.82
2019-05-07T14:57:21.719Z,24.70
2019-05-07T14:59:56.525Z,24.61
2019-05-07T15:02:29.899Z,24.51
2019-05-07T15:05:05.798Z,24.47
2019-05-07T15:07:39.786Z,24.43
2019-05-07T15:10:13.332Z,24.36
2019-05-07T15:12:46.734Z,24.35
2019-05-07T15:15:22.001Z,24.40
2019-05-07T15:17:55.255Z,24.22
2019-05-07T15:20:29.437Z,24.29
2019-05-07T15:23:02.869Z,24.20
2019-05-07T15:25:36.464Z,24.47
2019-05-07T15:28:09.654Z,24.35
2019-05-07T15:30:43.469Z,24.36
2019-05-07T15:33:16.899Z,24.33
2019-05-07T15:35:52.072Z,24.55
2019-05-07T15:38:25.389Z,24.38
2019-05-07T15:40:58.814Z,24.36
2019-05-07T15:43:32.511Z,24.25
2019-05-07T15:46:06.111Z,24.58
2019-05-07T15:48:39.451Z,24.33
2019-05-07T15:51:12.855Z,24.76
2019-05-07T15:53:47.810Z,24.50
2019-05-07T15:56:21.913Z,24.67
2019-05-07T15:58:55.344Z,24.45
2019-05-07T16:01:28.827Z,24.41
2019-05-07T16:04:02.781Z,24.33
2019-05-07T16:06:36.459Z,24.29
2019-05-07T16:09:09.974Z,24.17
2019-05-07T16:11:43.491Z,24.67
2019-05-07T16:14:16.967Z,24.56
2019-05-07T16:16:51.993Z,24.33
2019-05-07T16:19:25.355Z,24.28
2019-05-07T16:22:03.615Z,24.27
2019-05-07T16:24:34.953Z,24.26
2019-05-07T16:27:08.269Z,24.31
2019-05-07T16:29:42.166Z,24.21
2019-05-07T16:32:15.975Z,24.26
2019-05-07T16:34:50.188Z,24.20
2019-05-07T16:37:23.578Z,24.35
2019-05-07T16:39:58.641Z,24.31
2019-05-07T16:42:33.633Z,24.57
2019-05-07T16:45:07.086Z,24.29
2019-05-07T16:47:40.442Z,24.16
2019-05-07T16:50:14.752Z,24.14
2019-05-07T16:52:48.122Z,24.48
2019-05-07T16:55:22.405Z,24.30
2019-05-07T16:57:56.018Z,24.23
2019-05-07T17:00:31.736Z,24.23
2019-05-07T17:03:04.733Z,24.15
2019-05-07T17:05:39.023Z,24.10
2019-05-07T17:08:12.506Z,24.19
2019-05-07T17:10:46.506Z,23.81
2019-05-07T17:13:19.874Z,24.18
2019-05-07T17:15:53.207Z,24.12
2019-05-07T17:18:28.442Z,24.07
2019-05-07T17:21:02.214Z,24.08
2019-05-07T17:23:44.126Z,24.09
2019-05-07T17:26:11.732Z,24.08
2019-05-07T17:28:45.166Z,24.03
2019-05-07T17:31:18.578Z,23.99
2019-05-07T17:33:51.923Z,23.98
2019-05-07T17:36:25.306Z,24.02
2019-05-07T17:38:58.733Z,23.97
2019-05-07T17:41:32.406Z,24.02
2019-05-07T17:44:06.502Z,23.95
2019-05-07T17:46:42.686Z,23.95
2019-05-07T17:49:15.875Z,23.92
2019-05-07T17:51:49.267Z,23.90
2019-05-07T17:54:22.730Z,24.12
2019-05-07T17:56:56.067Z,23.93
2019-05-07T17:59:29.492Z,23.97
2019-05-07T18:02:03.605Z,23.88
2019-05-07T18:04:48.466Z,23.87
2019-05-07T18:07:12.374Z,23.88
2019-05-07T18:09:46.789Z,23.86
2019-05-07T18:12:22.464Z,23.89
2019-05-07T18:14:55.741Z,23.91
2019-05-07T18:17:30.265Z,23.90
2019-05-07T18:20:04.316Z,23.91
2019-05-07T18:22:37.926Z,24.27
2019-05-07T18:25:12.451Z,24.21
2019-05-07T18:27:46.537Z,24.18
2019-05-07T18:30:22.063Z,24.02
2019-05-07T18:32:55.377Z,24.33
2019-05-07T18:35:32.150Z,24.21
2019-05-07T18:38:06.934Z,24.20
2019-05-07T18:40:42.131Z,24.13
2019-05-07T18:43:17.380Z,24.03
2019-05-07T18:45:51.755Z,23.94
2019-05-07T18:48:26.763Z,23.94
2019-05-07T18:51:02.746Z,24.00
2019-05-07T18:53:36.356Z,23.92
2019-05-07T18:56:10.049Z,23.81
2019-05-07T18:58:44.377Z,23.84
2019-05-07T19:01:17.912Z,23.89
2019-05-07T19:03:52.566Z,23.83
2019-05-07T19:06:26.507Z,23.70
2019-05-07T19:09:00.152Z,23.61
2019-05-07T19:11:35.340Z,23.72
2019-05-07T19:14:10.600Z,23.67
2019-05-07T19:16:44.317Z,23.72
2019-05-07T19:19:17.506Z,23.61
2019-05-07T19:21:52.790Z,23.63
2019-05-07T19:24:26.597Z,23.51
2019-05-07T19:27:02.038Z,23.45
2019-05-07T19:29:35.127Z,23.50
2019-05-07T19:32:08.681Z,23.55
2019-05-07T19:34:43.860Z,23.64
2019-05-07T19:37:17.465Z,23.45
2019-05-07T19:39:52.369Z,23.50
2019-05-07T19:42:26.409Z,23.49
2019-05-07T19:45:02.643Z,23.84
2019-05-07T19:47:36.942Z,23.72
2019-05-07T19:50:12.401Z,23.29
2019-05-07T19:52:45.477Z,23.63
2019-05-07T19:55:18.927Z,23.43
2019-05-07T19:57:52.343Z,23.44
2019-05-07T20:00:27.439Z,23.41
2019-05-07T20:03:00.876Z,23.50
2019-05-07T20:05:37.198Z,23.39
2019-05-07T20:08:11.882Z,23.46
2019-05-07T20:10:44.815Z,23.45
2019-05-07T20:13:18.141Z,23.41
2019-05-07T20:15:52.851Z,23.45
2019-05-07T20:18:26.242Z,23.49
2019-05-07T20:21:02.553Z,23.43
2019-05-07T20:23:36.632Z,23.39
2019-05-07T20:26:12.644Z,23.81
2019-05-07T20:28:46.199Z,23.58
2019-05-07T20:31:19.658Z,23.46
2019-05-07T20:33:53.299Z,23.44
2019-05-07T20:36:26.986Z,23.10
2019-05-07T20:39:02.227Z,23.17
2019-05-07T20:41:37.074Z,23.05
2019-05-07T20:44:11.942Z,23.01
2019-05-07T20:46:45.664Z,22.97
2019-05-07T20:49:19.009Z,22.95
2019-05-07T20:51:52.797Z,22.78
2019-05-07T20:54:26.311Z,22.74
2019-05-07T20:57:02.108Z,22.80
2019-05-07T20:59:34.974Z,22.90
2019-05-07T21:02:08.372Z,22.80
2019-05-07T21:04:42.495Z,22.80
2019-05-07T21:07:16.293Z,22.80
2019-05-07T21:09:49.719Z,22.69
2019-05-07T21:12:23.082Z,22.57
2019-05-07T21:14:56.565Z,22.61
2019-05-07T21:17:32.074Z,22.48
2019-05-07T21:20:06.728Z,22.62
2019-05-07T21:22:40.086Z,22.55
2019-05-07T21:25:13.429Z,22.59
2019-05-07T21:27:46.753Z,22.64
2019-05-07T21:30:22.194Z,22.70
2019-05-07T21:32:55.127Z,22.78
2019-05-07T21:35:28.474Z,22.84
2019-05-07T21:38:01.928Z,22.90
2019-05-07T21:40:35.315Z,23.17
2019-05-07T21:43:08.668Z,23.18
2019-05-07T21:45:42.394Z,23.30
2019-05-07T21:48:15.761Z,23.39
2019-05-07T21:50:49.158Z,23.70
2019-05-07T21:53:22.978Z,23.64
2019-05-07T21:56:01.888Z,23.67
2019-05-07T21:58:32.873Z,23.69
2019-05-07T22:01:06.224Z,23.71
2019-05-07T22:03:39.858Z,23.66
2019-05-07T22:06:13.221Z,23.72
2019-05-07T22:08:47.996Z,23.67
2019-05-07T22:11:22.957Z,23.67
2019-05-07T22:13:56.610Z,23.31
2019-05-07T22:16:30.120Z,23.66
2019-05-07T22:19:03.822Z,23.54
2019-05-07T22:21:37.127Z,23.55
2019-05-07T22:24:13.107Z,23.55
2019-05-07T22:26:46.194Z,23.53
2019-05-07T22:29:19.500Z,23.43
2019-05-07T22:31:53.082Z,23.39
2019-05-07T22:34:28.188Z,23.25
2019-05-07T22:37:03.335Z,23.34
2019-05-07T22:39:47.527Z,23.29
2019-05-07T22:42:28.582Z,23.28
2019-05-07T22:45:02.804Z,23.13
2019-05-07T22:47:36.523Z,23.10
2019-05-07T22:50:12.022Z,23.19
2019-05-07T22:52:45.104Z,23.13
2019-05-07T22:55:18.440Z,23.05
2019-05-07T22:57:52.530Z,23.03
2019-05-07T23:00:26.134Z,23.06
2019-05-07T23:02:59.512Z,23.26
2019-05-07T23:05:32.858Z,23.11
2019-05-07T23:08:06.166Z,23.06
2019-05-07T23:10:39.524Z,23.07
2019-05-07T23:13:13.097Z,22.96
2019-05-07T23:15:46.654Z,22.71
2019-05-07T23:18:22.592Z,22.76
2019-05-07T23:20:56.757Z,22.66
2019-05-07T23:23:32.053Z,22.70
2019-05-07T23:26:05.201Z,22.68
2019-05-07T23:28:39.207Z,22.48
2019-05-07T23:31:12.796Z,22.38
2019-05-07T23:33:46.256Z,22.47
2019-05-07T23:36:22.162Z,22.32
2019-05-07T23:38:56.432Z,22.26
2019-05-07T23:41:32.427Z,22.18
2019-05-07T23:44:05.761Z,22.18
2019-05-07T23:46:39.144Z,22.14
2019-05-07T23:49:12.713Z,22.17
2019-05-07T23:51:46.042Z,22.18
2019-05-07T23:54:19.385Z,22.12
2019-05-07T23:57:05.943Z,22.10
2019-05-07T23:59:29.198Z,22.07
